Time;durP1;ratioP1;P1;durP2;ratioP2;P2;SDS_P1;SDS_P2;PMS_P1;PMS_P2;Temp;Humidity;BMP_temperature;BMP_pressure;BME280_temperature;BME280_humidity;BME280_pressure;Samples;Min_cycle;Max_cycle;Signal;HPM_P1;HPM_P2
2021/08/02 00:02:21;;;;;;;;;0.00;0.00;;;;;19.83;53.61;101062.13;6179667;23;45552;-74
2021/08/02 00:04:56;;;;;;;;;0.00;0.00;;;;;19.77;53.40;101040.28;6181398;23;45440;-76
2021/08/02 00:07:23;;;;;;;;;0.00;0.00;;;;;19.74;53.64;101038.59;6180582;23;45444;-74
2021/08/02 00:09:49;;;;;;;;;0.00;0.00;;;;;19.79;53.58;101056.97;6181166;23;45376;-76
2021/08/02 00:12:26;;;;;;;;;0.00;0.00;;;;;19.74;53.80;101044.75;6180753;23;45781;-77
2021/08/02 00:14:53;;;;;;;;;0.00;0.00;;;;;19.75;53.60;101051.75;6181089;23;45421;-75
2021/08/02 00:17:20;;;;;;;;;0.00;0.00;;;;;19.55;54.09;101039.06;6180913;23;45358;-75
2021/08/02 00:19:45;;;;;;;;;0.50;0.00;;;;;19.43;54.09;101020.84;6155698;23;45477;-75
2021/08/02 00:22:10;;;;;;;;;0.00;0.00;;;;;19.46;54.05;101034.88;6154921;23;46233;-75
2021/08/02 00:24:36;;;;;;;;;0.25;0.00;;;;;19.30;54.41;101023.81;6179695;23;45363;-75
2021/08/02 00:27:02;;;;;;;;;0.00;0.00;;;;;19.43;54.31;101050.78;6181032;23;45878;-75
2021/08/02 00:29:30;;;;;;;;;0.00;0.00;;;;;19.33;54.66;101055.38;6181040;23;45422;-76
2021/08/02 00:31:55;;;;;;;;;0.00;0.00;;;;;19.22;54.91;101037.16;6155622;23;47179;-75
2021/08/02 00:34:21;;;;;;;;;0.00;0.00;;;;;19.30;54.78;101046.69;6125726;23;45316;-75
2021/08/02 00:36:59;;;;;;;;;0.00;0.00;;;;;19.34;54.69;101057.13;6089747;23;45386;-75
2021/08/02 00:39:50;;;;;;;;;0.00;0.00;;;;;19.25;54.88;101052.06;6090215;23;45370;-74
2021/08/02 00:42:43;;;;;;;;;0.00;0.00;;;;;19.18;55.26;101061.03;6088035;23;46372;-74
2021/08/02 00:45:10;;;;;;;;;0.00;0.00;;;;;19.10;55.29;101061.19;6089876;23;45270;-75
2021/08/02 00:47:54;;;;;;;;;0.00;0.00;;;;;19.05;55.63;101060.41;6088149;23;45399;-76
2021/08/02 00:50:24;;;;;;;;;1.00;0.00;;;;;18.99;55.71;101048.22;6089965;23;45308;-74
2021/08/02 00:53:00;;;;;;;;;0.00;0.00;;;;;19.07;55.24;101053.31;6087983;23;46155;-74
2021/08/02 00:55:31;;;;;;;;;0.00;0.00;;;;;18.78;55.95;101015.25;6089761;23;45344;-76
2021/08/02 00:58:01;;;;;;;;;0.00;0.00;;;;;18.93;56.20;101062.38;6089986;23;45296;-75
2021/08/02 01:00:26;;;;;;;;;0.00;0.00;;;;;18.79;55.85;101030.16;6090200;23;45451;-75
2021/08/02 01:02:52;;;;;;;;;0.00;0.00;;;;;18.89;56.55;101060.72;6089869;23;46380;-75
2021/08/02 01:05:19;;;;;;;;;0.00;0.00;;;;;18.86;56.71;101050.22;6087559;23;45304;-76
2021/08/02 01:07:57;;;;;;;;;0.00;0.00;;;;;18.83;56.36;101055.56;6088030;23;45278;-75
2021/08/02 01:10:23;;;;;;;;;0.00;0.00;;;;;18.72;56.48;101047.88;6089722;23;45335;-75
2021/08/02 01:12:51;;;;;;;;;0.00;0.00;;;;;18.70;56.73;101049.69;6089921;23;46096;-75
2021/08/02 01:15:18;;;;;;;;;0.00;0.00;;;;;18.72;57.13;101058.44;6089188;23;45309;-75
2021/08/02 01:17:45;;;;;;;;;0.00;0.00;;;;;18.61;57.34;101042.81;6089624;23;45292;-75
2021/08/02 01:20:11;;;;;;;;;0.00;0.00;;;;;18.67;57.37;101065.56;6090122;23;45318;-75
2021/08/02 01:22:37;;;;;;;;;0.00;0.00;;;;;18.66;57.08;101063.81;6087650;23;48712;-75
2021/08/02 01:25:38;;;;;;;;;0.00;0.00;;;;;18.61;57.40;101066.56;6089784;23;45365;-75
2021/08/02 01:28:15;;;;;;;;;0.00;0.00;;;;;18.58;57.31;101063.97;6089685;23;45329;-75
2021/08/02 01:30:51;;;;;;;;;0.00;0.00;;;;;18.59;57.76;101069.22;6088251;23;45369;-75
2021/08/02 01:33:19;;;;;;;;;0.00;0.00;;;;;18.64;57.58;101065.63;6088993;23;46364;-75
2021/08/02 01:35:45;;;;;;;;;0.00;0.00;;;;;18.63;57.86;101069.16;6089528;23;45316;-75
2021/08/02 01:38:12;;;;;;;;;0.00;0.00;;;;;18.70;57.50;101062.88;6089937;23;45289;-75
2021/08/02 01:40:38;;;;;;;;;0.00;0.00;;;;;18.67;57.90;101057.66;6089926;23;45191;-75
2021/08/02 01:43:08;;;;;;;;;0.00;0.00;;;;;18.51;58.11;101042.16;6089579;23;45938;-75
2021/08/02 01:45:51;;;;;;;;;0.00;0.00;;;;;18.49;58.20;101042.19;6087713;23;45399;-76
2021/08/02 01:48:20;;;;;;;;;0.75;0.75;;;;;18.52;58.13;101038.59;6088742;23;45384;-75
2021/08/02 01:50:49;;;;;;;;;0.00;0.00;;;;;18.57;58.25;101052.59;6089693;23;45390;-76
2021/08/02 01:53:37;;;;;;;;;0.00;0.00;;;;;18.60;57.95;101056.91;6087447;23;48190;-76
2021/08/02 01:56:11;;;;;;;;;1.00;0.25;;;;;18.47;58.04;101038.69;6089546;23;45349;-76
2021/08/02 01:58:44;;;;;;;;;0.00;0.00;;;;;18.29;58.65;101033.78;6089612;23;45277;-76
2021/08/02 02:01:09;;;;;;;;;0.00;0.00;;;;;18.27;58.74;101043.47;6089729;23;45258;-75
2021/08/02 02:03:36;;;;;;;;;0.00;0.00;;;;;18.32;58.71;101049.56;6088838;23;45250;-75
2021/08/02 02:06:08;;;;;;;;;0.00;0.00;;;;;18.08;59.23;101012.19;6089294;23;45278;-75
2021/08/02 02:08:41;;;;;;;;;0.00;0.00;;;;;18.38;59.27;101059.97;6089163;23;45421;-76
2021/08/02 02:11:09;;;;;;;;;0.75;0.00;;;;;18.32;59.02;101052.19;6089650;23;45336;-75
2021/08/02 02:13:38;;;;;;;;;0.00;0.00;;;;;18.31;59.43;101042.53;6089103;23;46334;-76
2021/08/02 02:16:05;;;;;;;;;0.00;0.00;;;;;18.49;59.31;101060.63;6089083;23;45404;-75
2021/08/02 02:18:34;;;;;;;;;0.00;0.00;;;;;18.50;58.83;101045.69;6089148;23;45769;-75
2021/08/02 02:21:02;;;;;;;;;0.00;0.00;;;;;18.42;58.92;101040.56;6089376;23;45384;-76
2021/08/02 02:23:28;;;;;;;;;0.00;0.00;;;;;18.41;58.76;101035.31;6088887;23;46091;-77
2021/08/02 02:25:56;;;;;;;;;0.00;0.00;;;;;18.45;59.11;101047.53;6088814;23;45341;-76
2021/08/02 02:28:21;;;;;;;;;0.00;0.00;;;;;18.53;59.60;101053.50;6089143;23;45424;-77
2021/08/02 02:30:48;;;;;;;;;0.00;0.00;;;;;18.47;59.06;101035.22;6089059;23;45355;-76
2021/08/02 02:33:16;;;;;;;;;0.00;0.00;;;;;18.57;59.14;101055.22;6088503;23;45268;-76
2021/08/02 02:35:44;;;;;;;;;0.00;0.00;;;;;18.56;58.83;101047.34;6088746;23;45386;-76
2021/08/02 02:38:14;;;;;;;;;0.00;0.00;;;;;18.63;59.04;101051.59;6089162;23;45218;-74
2021/08/02 02:40:45;;;;;;;;;0.00;0.00;;;;;18.54;58.72;101035.94;6087310;23;45497;-76
2021/08/02 02:43:12;;;;;;;;;0.00;0.00;;;;;18.65;59.14;101051.56;6089000;23;46168;-74
2021/08/02 02:45:40;;;;;;;;;0.00;0.00;;;;;18.58;58.58;101046.41;6087474;23;45364;-76
2021/08/02 02:48:07;;;;;;;;;0.00;0.00;;;;;18.68;58.92;101060.25;6088429;23;45374;-76
2021/08/02 02:50:33;;;;;;;;;0.00;0.00;;;;;18.70;58.52;101060.22;6089134;23;45305;-76
2021/08/02 02:53:01;;;;;;;;;0.00;0.00;;;;;18.72;59.03;101067.19;6088866;23;45281;-76
2021/08/02 02:55:29;;;;;;;;;0.00;0.00;;;;;18.62;58.55;101047.19;6088568;23;45257;-76
2021/08/02 02:57:55;;;;;;;;;0.00;0.00;;;;;18.74;59.01;101060.13;6088762;23;45368;-76
2021/08/02 03:00:20;;;;;;;;;0.00;0.00;;;;;18.76;58.54;101060.09;6088739;23;45215;-76
2021/08/02 03:02:49;;;;;;;;;0.00;0.00;;;;;18.80;58.68;101060.94;6088558;23;45918;-76
2021/08/02 03:05:16;;;;;;;;;0.00;0.00;;;;;18.81;58.49;101060.00;6088760;23;45354;-76
2021/08/02 03:07:43;;;;;;;;;0.00;0.00;;;;;18.82;58.22;101056.47;6088472;23;45338;-76
2021/08/02 03:10:12;;;;;;;;;0.00;0.00;;;;;18.82;59.04;101051.19;6088835;23;45435;-77
2021/08/02 03:12:37;;;;;;;;;0.00;0.00;;;;;18.83;58.53;101064.34;6088844;23;45341;-76
2021/08/02 03:15:03;;;;;;;;;0.00;0.00;;;;;18.70;59.10;101047.03;6088107;23;45353;-76
2021/08/02 03:17:29;;;;;;;;;0.00;0.00;;;;;18.65;59.06;101031.31;6088227;23;45345;-76
2021/08/02 03:19:55;;;;;;;;;0.00;0.00;;;;;18.76;58.72;101056.59;6088973;23;45341;-76
2021/08/02 03:22:41;;;;;;;;;0.00;0.00;;;;;18.80;59.04;101066.19;6088185;23;46461;-76
2021/08/02 03:25:13;;;;;;;;;0.00;0.00;;;;;18.81;58.87;101065.28;6088707;23;45327;-76
2021/08/02 03:27:48;;;;;;;;;0.00;0.00;;;;;18.82;59.12;101065.25;6087723;23;45361;-76
2021/08/02 03:30:14;;;;;;;;;0.00;0.00;;;;;18.83;58.92;101068.75;6086265;23;45481;-76
2021/08/02 03:32:44;;;;;;;;;1.00;0.00;;;;;18.72;58.89;101054.00;6086581;23;46359;-76
2021/08/02 03:35:13;;;;;;;;;0.00;0.00;;;;;18.71;58.97;101048.78;6087980;23;45271;-76
2021/08/02 03:37:40;;;;;;;;;0.00;0.00;;;;;18.81;59.02;101073.19;6086295;23;45395;-75
2021/08/02 03:40:07;;;;;;;;;0.00;0.00;;;;;18.81;59.11;101067.94;6088564;23;45368;-76
2021/08/02 03:42:37;;;;;;;;;1.00;0.00;;;;;18.81;58.82;101067.94;6088287;23;46042;-76
2021/08/02 03:45:03;;;;;;;;;0.00;0.00;;;;;18.85;58.94;101074.88;6088114;23;45322;-76
2021/08/02 03:47:29;;;;;;;;;0.00;0.00;;;;;18.84;59.01;101078.41;6088021;23;45325;-76
2021/08/02 03:49:55;;;;;;;;;0.00;0.00;;;;;18.72;59.37;101061.91;6088881;23;45305;-75
2021/08/02 03:52:20;;;;;;;;;0.00;0.00;;;;;18.77;59.14;101076.81;6087473;23;46106;-76
2021/08/02 03:54:45;;;;;;;;;0.00;0.00;;;;;18.72;59.31;101076.91;6085834;23;45298;-74
2021/08/02 03:57:12;;;;;;;;;0.00;0.00;;;;;18.79;59.25;101081.16;6086721;23;45368;-76
2021/08/02 03:59:38;;;;;;;;;0.00;0.00;;;;;18.77;59.71;101082.09;6088338;23;45395;-75
2021/08/02 04:02:03;;;;;;;;;0.00;0.00;;;;;18.53;59.20;101058.78;6088631;23;46047;-74
2021/08/02 04:04:29;;;;;;;;;0.00;0.00;;;;;18.46;59.66;101080.91;6088296;23;45234;-75
2021/08/02 04:06:54;;;;;;;;;0.00;0.00;;;;;18.41;59.65;101080.13;6085609;23;45179;-75
2021/08/02 04:09:19;;;;;;;;;0.00;0.00;;;;;18.33;60.23;101103.97;6088846;23;45230;-75
2021/08/02 04:11:45;;;;;;;;;0.00;0.00;;;;;18.09;60.31;101099.09;6087873;23;45906;-74
2021/08/02 04:14:12;;;;;;;;;0.00;0.00;;;;;17.87;60.78;101080.16;6086254;23;45326;-76
2021/08/02 04:16:37;;;;;;;;;0.00;0.00;;;;;17.97;60.98;101115.09;6087875;23;45275;-75
2021/08/02 04:19:04;;;;;;;;;0.00;0.00;;;;;17.92;61.39;101103.78;6088334;23;45356;-75
2021/08/02 04:21:29;;;;;;;;;0.00;0.00;;;;;18.08;61.26;101120.19;6088151;23;45277;-75
2021/08/02 04:23:55;;;;;;;;;0.00;0.00;;;;;18.15;60.97;101118.34;6088302;23;45312;-76
2021/08/02 04:26:21;;;;;;;;;0.00;0.00;;;;;18.21;61.28;101123.50;6087905;23;45343;-75
2021/08/02 04:28:46;;;;;;;;;0.00;0.00;;;;;18.19;61.72;101112.16;6088534;23;45384;-75
2021/08/02 04:31:12;;;;;;;;;0.00;0.00;;;;;18.11;61.37;101104.38;6087840;23;46205;-75
2021/08/02 04:33:38;;;;;;;;;0.00;0.00;;;;;18.09;61.11;101121.91;6088250;23;45378;-75
2021/08/02 04:36:05;;;;;;;;;0.00;0.00;;;;;17.96;61.59;101118.63;6088428;23;45281;-74
2021/08/02 04:38:31;;;;;;;;;0.00;0.00;;;;;17.98;61.56;101112.44;6086519;23;45377;-75
2021/08/02 04:40:56;;;;;;;;;0.00;0.00;;;;;18.15;61.08;101121.84;6088376;23;45542;-75
2021/08/02 04:43:22;;;;;;;;;0.00;0.00;;;;;18.19;61.13;101118.25;6087005;23;45632;-75
2021/08/02 04:45:47;;;;;;;;;0.00;0.00;;;;;18.21;61.52;101126.16;6087886;23;45326;-75
2021/08/02 04:48:13;;;;;;;;;0.25;0.00;;;;;18.04;61.19;101095.66;6088363;23;45392;-76
2021/08/02 04:50:38;;;;;;;;;0.25;0.00;;;;;18.08;61.21;101099.13;6086621;23;48432;-76
2021/08/02 04:53:04;;;;;;;;;0.00;0.00;;;;;18.16;61.55;101106.94;6089351;23;45238;-75
2021/08/02 04:55:30;;;;;;;;;0.00;0.00;;;;;18.09;61.35;101100.84;6090114;23;45293;-76
2021/08/02 04:57:55;;;;;;;;;6.00;1.00;;;;;18.07;61.59;101103.50;6089408;23;45412;-75
2021/08/02 05:00:20;;;;;;;;;0.00;0.00;;;;;18.19;61.08;101112.16;6088815;23;45874;-75
2021/08/02 05:02:45;;;;;;;;;0.00;0.00;;;;;18.14;61.32;101098.16;6089137;23;45321;-75
2021/08/02 05:05:11;;;;;;;;;0.00;0.00;;;;;18.07;61.26;101092.97;6089864;23;45565;-75
2021/08/02 05:07:36;;;;;;;;;0.00;0.00;;;;;18.27;61.75;101114.63;6089980;23;45447;-75
2021/08/02 05:10:02;;;;;;;;;0.00;0.00;;;;;18.20;61.41;101112.13;6087271;23;47144;-75
2021/08/02 05:12:28;;;;;;;;;0.00;0.00;;;;;18.34;61.28;101126.78;6089136;23;45337;-75
2021/08/02 05:14:53;;;;;;;;;0.00;0.00;;;;;18.41;61.31;101127.56;6086931;23;45280;-74
2021/08/02 05:17:18;;;;;;;;;0.00;0.00;;;;;18.55;61.33;101132.56;6090337;23;45184;-75
2021/08/02 05:19:44;;;;;;;;;0.00;0.00;;;;;18.52;60.91;101125.59;6089357;23;45968;-75
2021/08/02 05:22:09;;;;;;;;;0.00;0.00;;;;;18.42;60.67;101108.22;6089220;23;48419;-75
2021/08/02 05:24:34;;;;;;;;;0.00;0.00;;;;;18.41;60.65;101107.34;6087355;23;45307;-75
2021/08/02 05:27:00;;;;;;;;;0.00;0.00;;;;;18.55;60.51;101136.09;6089584;23;45404;-75
2021/08/02 05:29:26;;;;;;;;;0.00;0.00;;;;;18.48;60.93;101122.16;6088990;23;46085;-75
2021/08/02 05:31:51;;;;;;;;;0.00;0.00;;;;;18.51;60.77;101133.53;6089074;23;45188;-74
2021/08/02 05:34:17;;;;;;;;;0.00;0.00;;;;;18.64;60.68;101137.69;6089331;23;45625;-74
2021/08/02 05:36:42;;;;;;;;;1.00;0.00;;;;;18.54;61.29;101125.56;6089423;23;45450;-75
2021/08/02 05:39:08;;;;;;;;;0.00;0.00;;;;;18.77;60.46;101148.00;6089293;23;45349;-74
2021/08/02 05:41:34;;;;;;;;;0.00;0.00;;;;;18.64;60.27;101132.41;6086474;23;45270;-75
2021/08/02 05:43:59;;;;;;;;;0.00;0.00;;;;;18.61;60.43;101132.47;6089306;23;45368;-76
2021/08/02 05:46:25;;;;;;;;;0.00;0.00;;;;;18.57;60.56;101142.22;6088797;23;45429;-75
2021/08/02 05:48:50;;;;;;;;;0.00;0.00;;;;;18.45;60.83;101127.50;6088879;23;46233;-75
2021/08/02 05:51:15;;;;;;;;;0.00;0.00;;;;;18.53;60.31;101131.75;6088705;23;45376;-75
2021/08/02 05:53:41;;;;;;;;;0.00;0.00;;;;;18.55;60.40;101143.13;6088793;23;45382;-75
2021/08/02 05:56:07;;;;;;;;;1.00;0.00;;;;;18.52;60.64;101140.53;6089173;23;45349;-75
2021/08/02 05:58:32;;;;;;;;;0.00;0.00;;;;;18.41;60.73;101130.19;6088497;23;45844;-75
2021/08/02 06:00:57;;;;;;;;;0.00;0.00;;;;;18.40;61.14;101107.38;6088401;23;45324;-76
2021/08/02 06:03:23;;;;;;;;;0.00;0.00;;;;;18.64;60.76;101142.06;6088464;23;45225;-76
2021/08/02 06:05:48;;;;;;;;;0.00;0.00;;;;;18.69;60.71;101138.47;6087073;23;45386;-76
2021/08/02 06:08:13;;;;;;;;;0.00;0.00;;;;;18.83;60.22;101142.59;6087334;23;47054;-77
2021/08/02 06:10:39;;;;;;;;;0.00;0.00;;;;;18.95;60.35;101150.28;6086576;23;46170;-76
2021/08/02 06:13:04;;;;;;;;;0.00;0.00;;;;;18.81;60.04;101124.16;6089062;23;45241;-76
2021/08/02 06:15:29;;;;;;;;;0.00;0.00;;;;;18.95;60.61;101154.66;6089412;23;45467;-76
2021/08/02 06:17:55;;;;;;;;;0.00;0.00;;;;;19.03;60.24;101149.25;6088882;23;46143;-76
2021/08/02 06:20:20;;;;;;;;;0.00;0.00;;;;;18.71;59.95;101089.19;6088711;23;45285;-76
2021/08/02 06:22:46;;;;;;;;;0.00;0.00;;;;;19.14;60.21;101154.34;6088411;23;45270;-76
2021/08/02 06:25:11;;;;;;;;;0.00;0.00;;;;;19.26;59.72;101153.22;6088384;23;45433;-76
2021/08/02 06:27:37;;;;;;;;;0.00;0.00;;;;;19.27;59.61;101152.31;6086989;23;46916;-77
2021/08/02 06:30:03;;;;;;;;;0.00;0.00;;;;;19.10;59.41;101120.09;6087895;23;45361;-77
2021/08/02 06:32:29;;;;;;;;;0.00;0.00;;;;;19.35;59.56;101159.16;6085986;23;45406;-74
2021/08/02 06:34:54;;;;;;;;;0.25;0.00;;;;;19.40;59.30;101155.56;6088121;23;45317;-76
2021/08/02 06:37:20;;;;;;;;;0.00;0.00;;;;;19.26;59.27;101135.59;6085569;23;47396;-76
2021/08/02 06:39:45;;;;;;;;;0.00;0.00;;;;;19.21;59.52;101129.56;6088106;23;45711;-76
2021/08/02 06:42:13;;;;;;;;;0.00;0.00;;;;;19.50;59.24;101157.09;6088154;23;45400;-76
2021/08/02 06:44:39;;;;;;;;;0.00;0.00;;;;;19.50;58.74;101152.69;6086634;23;45555;-76
2021/08/02 06:47:05;;;;;;;;;0.00;0.00;;;;;19.33;58.81;101123.16;6087664;23;46231;-76
2021/08/02 06:49:30;;;;;;;;;0.00;0.00;;;;;19.53;58.33;101150.84;6087517;23;45327;-76
2021/08/02 06:51:56;;;;;;;;;0.00;0.00;;;;;19.60;58.45;101157.75;6086442;23;45312;-75
2021/08/02 06:54:21;;;;;;;;;0.00;0.00;;;;;19.69;58.78;101157.53;6088012;23;45475;-76
2021/08/02 06:56:46;;;;;;;;;0.00;0.00;;;;;19.39;58.42;101117.75;6087825;23;53903;-76
2021/08/02 06:59:12;;;;;;;;;0.00;0.00;;;;;19.28;58.54;101114.44;6086268;23;45404;-76
2021/08/02 07:01:37;;;;;;;;;0.00;0.00;;;;;19.27;58.42;101124.16;6085238;23;45418;-76
2021/08/02 07:04:03;;;;;;;;;0.00;0.00;;;;;19.28;58.55;101127.66;6087774;23;45317;-76
2021/08/02 07:06:29;;;;;;;;;0.00;0.00;;;;;19.20;58.74;101123.41;6086813;23;46895;-76
2021/08/02 07:08:57;;;;;;;;;0.00;0.00;;;;;19.55;58.68;101178.09;6087258;23;45277;-76
2021/08/02 07:11:22;;;;;;;;;1.00;0.00;;;;;19.58;58.68;101178.03;6086902;23;45357;-76
2021/08/02 07:13:48;;;;;;;;;0.00;0.00;;;;;19.56;58.71;101186.00;6085377;23;45250;-76
2021/08/02 07:16:13;;;;;;;;;0.00;0.00;;;;;19.44;58.71;101146.66;6084972;23;46582;-77
2021/08/02 07:18:38;;;;;;;;;0.75;0.00;;;;;19.69;58.56;101176.03;6087391;23;45246;-77
2021/08/02 07:21:04;;;;;;;;;0.00;0.00;;;;;19.71;58.39;101154.84;6084814;23;45326;-77
2021/08/02 07:23:29;;;;;;;;;0.00;0.00;;;;;19.87;58.27;101171.22;6085472;23;45342;-76
2021/08/02 07:25:54;;;;;;;;;0.00;0.00;;;;;19.85;58.27;101157.19;6087429;23;49976;-78
2021/08/02 07:28:20;;;;;;;;;0.00;0.00;;;;;19.84;58.08;101163.34;6076200;23;45292;-76
2021/08/02 07:30:45;;;;;;;;;0.00;0.00;;;;;19.86;58.44;101164.22;6084606;23;45415;-74
2021/08/02 07:33:10;;;;;;;;;0.00;0.00;;;;;19.85;58.14;101158.03;6083790;23;45263;-75
2021/08/02 07:35:36;;;;;;;;;0.00;0.00;;;;;19.94;57.90;101166.66;6086293;23;45319;-75
2021/08/02 07:38:01;;;;;;;;;0.00;0.00;;;;;20.02;57.96;101185.00;6085099;23;45400;-76
2021/08/02 07:40:27;;;;;;;;;0.00;0.00;;;;;20.05;57.72;101166.44;6087126;23;45334;-76
2021/08/02 07:42:52;;;;;;;;;0.00;0.00;;;;;20.12;57.49;101168.88;6086623;23;45370;-78
2021/08/02 07:45:17;;;;;;;;;0.00;0.00;;;;;20.24;57.72;101177.41;6087317;23;45380;-78
2021/08/02 07:47:43;;;;;;;;;0.00;0.00;;;;;20.16;57.38;101159.13;6087982;23;45475;-79
2021/08/02 07:50:10;;;;;;;;;0.00;0.00;;;;;20.20;57.52;101175.75;6087485;23;45290;-79
2021/08/02 07:52:36;;;;;;;;;0.00;0.00;;;;;20.05;57.38;101163.78;6086933;23;45290;-79
2021/08/02 07:55:01;;;;;;;;;0.00;0.00;;;;;20.20;57.29;101183.69;6086906;23;45944;-78
2021/08/02 07:57:30;;;;;;;;;0.00;0.00;;;;;20.31;57.46;101186.94;6086764;23;45373;-77
2021/08/02 07:59:56;;;;;;;;;0.00;0.00;;;;;20.34;57.32;101191.28;6085308;23;45310;-78
2021/08/02 08:02:22;;;;;;;;;0.00;0.00;;;;;20.38;57.07;101191.16;6086700;23;45220;-75
2021/08/02 08:04:47;;;;;;;;;0.00;0.00;;;;;20.41;57.09;101195.50;6085826;23;45953;-76
2021/08/02 08:07:12;;;;;;;;;0.00;0.00;;;;;20.51;57.17;101183.78;6084036;23;45747;-76
2021/08/02 08:09:38;;;;;;;;;0.00;0.00;;;;;20.62;56.92;101177.34;6087040;23;45324;-78
2021/08/02 08:12:03;;;;;;;;;0.00;0.00;;;;;20.53;56.83;101177.56;6087189;23;45245;-78
2021/08/02 08:14:29;;;;;;;;;0.00;0.00;;;;;20.48;57.04;101161.81;6084685;23;46919;-78
2021/08/02 08:16:54;;;;;;;;;0.00;0.00;;;;;20.66;56.78;101179.00;6086641;23;57176;-77
2021/08/02 08:19:19;;;;;;;;;0.50;0.00;;;;;20.71;56.25;101192.09;6086397;23;45660;-76
2021/08/02 08:21:45;;;;;;;;;0.00;0.00;;;;;20.73;56.57;101182.31;6085295;23;45280;-76
2021/08/02 08:24:10;;;;;;;;;0.00;0.00;;;;;20.72;56.00;101168.25;6086929;23;45296;-77
2021/08/02 08:26:35;;;;;;;;;0.00;0.00;;;;;20.51;55.76;101130.91;6088671;23;45644;-79
2021/08/02 08:29:02;;;;;;;;;0.00;0.00;;;;;20.76;55.69;101167.25;6089571;23;45524;-75
2021/08/02 08:31:27;;;;;;;;;0.00;0.00;;;;;20.84;55.78;101174.09;6089459;23;45341;-76
2021/08/02 08:33:52;;;;;;;;;0.25;0.25;;;;;20.86;55.99;101167.00;6087611;23;45677;-77
2021/08/02 08:36:18;;;;;;;;;0.00;0.00;;;;;20.88;55.62;101171.34;6088366;23;45309;-75
2021/08/02 08:38:45;;;;;;;;;1.00;1.00;;;;;20.86;56.03;101165.22;6087723;23;45326;-75
2021/08/02 08:41:13;;;;;;;;;0.00;0.00;;;;;20.96;55.62;101163.22;6087792;23;45488;-76
2021/08/02 08:43:40;;;;;;;;;0.00;0.00;;;;;20.97;55.43;101156.13;6087872;23;45917;-76
2021/08/02 08:46:06;;;;;;;;;0.00;0.00;;;;;20.97;55.75;101174.66;6088646;23;45301;-76
2021/08/02 08:48:31;;;;;;;;;0.00;0.00;;;;;20.92;54.55;101166.00;6089017;23;45364;-76
2021/08/02 08:50:58;;;;;;;;;0.00;0.00;;;;;20.83;55.31;101167.09;6087936;23;45386;-77
2021/08/02 08:53:24;;;;;;;;;0.00;0.00;;;;;20.85;55.06;101175.84;6088121;23;46227;-77
2021/08/02 08:55:49;;;;;;;;;0.00;0.00;;;;;20.87;54.95;101180.19;6088335;23;45280;-76
2021/08/02 08:58:15;;;;;;;;;0.00;0.00;;;;;20.60;54.73;101134.19;6088300;23;45307;-76
2021/08/02 09:00:40;;;;;;;;;0.00;0.00;;;;;20.97;55.14;101175.53;6087142;23;54471;-79
2021/08/02 09:03:11;;;;;;;;;0.00;0.00;;;;;21.10;54.66;101183.13;6087784;23;45334;-77
2021/08/02 09:05:37;;;;;;;;;0.00;0.00;;;;;21.08;54.76;101163.78;6089403;23;45345;-79
2021/08/02 09:08:03;;;;;;;;;0.00;0.00;;;;;21.01;54.10;101147.22;6089743;23;45360;-76
2021/08/02 09:10:29;;;;;;;;;0.00;0.00;;;;;21.26;54.17;101171.16;6087455;23;45285;-76
2021/08/02 09:12:57;;;;;;;;;0.00;0.00;;;;;21.25;53.73;101148.25;6087728;23;45546;-76
2021/08/02 09:15:49;;;;;;;;;0.00;0.00;;;;;21.39;53.43;101178.75;6087113;23;45282;-75
2021/08/02 09:18:20;;;;;;;;;0.00;0.00;;;;;21.42;53.52;101173.38;6091406;23;45392;-75
2021/08/02 09:20:45;;;;;;;;;0.00;0.00;;;;;21.49;53.03;101166.97;6088988;23;45426;-78
2021/08/02 09:23:13;;;;;;;;;0.00;0.00;;;;;21.44;53.18;101168.88;6085804;23;46051;-76
2021/08/02 09:25:50;;;;;;;;;0.00;0.00;;;;;21.49;52.87;101176.69;6087045;23;45345;-75
2021/08/02 09:28:18;;;;;;;;;0.75;0.00;;;;;21.43;53.14;101176.88;6088309;23;45337;-74
2021/08/02 09:31:05;;;;;;;;;0.00;0.00;;;;;21.55;52.13;101180.94;6086228;23;45457;-76
2021/08/02 09:33:46;;;;;;;;;0.75;0.00;;;;;21.47;51.66;101178.53;6087164;23;45424;-74
2021/08/02 09:36:13;;;;;;;;;0.00;0.00;;;;;21.39;51.67;101176.09;6085425;23;45250;-76
2021/08/02 09:38:38;;;;;;;;;0.00;0.00;;;;;21.21;52.17;101167.81;6088318;23;45328;-74
2021/08/02 09:41:03;;;;;;;;;0.00;0.00;;;;;21.15;52.21;101165.34;6087795;23;45424;-76
2021/08/02 09:43:31;;;;;;;;;0.00;0.00;;;;;21.34;52.12;101151.53;6087710;23;46221;-75
2021/08/02 09:45:58;;;;;;;;;0.00;0.00;;;;;21.66;52.46;101173.53;6088431;23;45357;-78
2021/08/02 09:48:38;;;;;;;;;0.00;0.00;;;;;21.74;51.83;101174.16;6088910;23;45374;-77
2021/08/02 09:51:07;;;;;;;;;0.00;0.00;;;;;21.78;52.09;101174.97;6088628;23;45273;-78
2021/08/02 09:53:37;;;;;;;;;0.00;0.00;;;;;21.81;51.42;101172.22;6087931;23;45372;-79
2021/08/02 09:56:02;;;;;;;;;1.00;0.00;;;;;21.86;51.87;101172.94;6089017;23;45303;-82
2021/08/02 09:58:28;;;;;;;;;0.00;0.00;;;;;21.94;51.30;101169.16;6088664;23;45427;-77
2021/08/02 10:00:54;;;;;;;;;0.00;0.00;;;;;21.78;50.63;101151.13;6088413;23;45376;-83
2021/08/02 10:03:19;;;;;;;;;0.00;0.00;;;;;21.65;50.89;101138.22;6084983;23;47976;-83
2021/08/02 10:05:44;;;;;;;;;0.00;0.00;;;;;21.65;50.51;101126.75;6083864;23;45475;-79
2021/08/02 10:08:10;;;;;;;;;0.00;0.00;;;;;21.85;50.22;101134.09;6086664;23;45362;-77
2021/08/02 10:10:37;;;;;;;;;0.00;0.00;;;;;21.84;50.93;101119.09;6087788;23;45305;-81
2021/08/02 10:13:03;;;;;;;;;0.75;0.00;;;;;22.02;49.27;101144.13;6085829;23;46164;-78
2021/08/02 10:15:29;;;;;;;;;0.00;0.00;;;;;22.13;49.40;101161.47;6085943;23;45257;-77
2021/08/02 10:17:57;;;;;;;;;1.00;1.00;;;;;22.24;49.63;101151.38;6084761;23;45286;-78
2021/08/02 10:20:25;;;;;;;;;0.00;0.00;;;;;22.27;49.23;101153.91;6087655;23;45400;-77
2021/08/02 10:22:52;;;;;;;;;0.00;0.00;;;;;22.30;49.41;101157.38;6086227;23;46065;-75
2021/08/02 10:25:18;;;;;;;;;0.00;0.00;;;;;22.22;48.65;101155.00;6086124;23;45327;-78
2021/08/02 10:27:43;;;;;;;;;0.00;0.00;;;;;22.03;48.51;101135.25;6085628;23;45338;-76
2021/08/02 10:30:23;;;;;;;;;0.00;0.00;;;;;22.13;49.38;101162.34;6087189;23;45340;-80
2021/08/02 10:32:56;;;;;;;;;3.00;0.00;;;;;21.96;49.15;101143.50;6086834;23;46106;-78
2021/08/02 10:35:42;;;;;;;;;0.00;0.00;;;;;21.92;49.59;101161.25;6085595;23;45632;-80
2021/08/02 10:38:12;;;;;;;;;0.00;0.00;;;;;21.79;49.70;101155.50;6087620;23;45435;-80
2021/08/02 10:40:49;;;;;;;;;0.00;0.00;;;;;21.77;50.27;101167.91;6087641;23;45239;-78
2021/08/02 10:43:35;;;;;;;;;0.00;0.00;;;;;21.75;50.15;101156.53;6084511;23;48510;-79
2021/08/02 10:46:16;;;;;;;;;0.00;0.00;;;;;21.79;49.86;101155.50;6086009;23;45305;-78
2021/08/02 10:48:41;;;;;;;;;0.00;0.00;;;;;21.65;49.90;101129.41;6087146;23;45373;-79
2021/08/02 10:51:24;;;;;;;;;0.00;0.00;;;;;21.92;50.08;101155.13;6082328;23;45377;-82
2021/08/02 10:53:58;;;;;;;;;0.00;0.00;;;;;21.95;49.76;101136.44;6085220;23;45379;-79
2021/08/02 10:56:29;;;;;;;;;1.00;1.00;;;;;22.01;49.14;101134.47;6086463;23;45371;-77
2021/08/02 10:58:57;;;;;;;;;0.00;0.00;;;;;22.11;49.07;101136.81;6086480;23;45329;-75
2021/08/02 11:01:27;;;;;;;;;0.00;0.00;;;;;22.12;48.57;101146.50;6086882;23;45230;-77
2021/08/02 11:03:54;;;;;;;;;0.00;0.00;;;;;22.25;48.57;101145.16;6087423;23;45297;-77
2021/08/02 11:06:20;;;;;;;;;0.00;0.00;;;;;21.94;48.70;101097.59;6085650;23;45409;-78
2021/08/02 11:08:52;;;;;;;;;0.00;0.00;;;;;22.20;48.20;101133.84;6082447;23;45578;-76
2021/08/02 11:11:31;;;;;;;;;0.00;0.00;;;;;22.27;48.46;101151.25;6084895;23;45328;-77
2021/08/02 11:14:10;;;;;;;;;0.00;0.00;;;;;22.27;48.24;101153.91;6083620;23;46002;-76
2021/08/02 11:16:41;;;;;;;;;0.00;0.00;;;;;22.28;48.41;101147.72;6085648;23;45410;-77
2021/08/02 11:19:30;;;;;;;;;0.00;0.00;;;;;22.38;48.83;101144.72;6083537;23;45431;-79
2021/08/02 11:21:55;;;;;;;;;0.00;0.00;;;;;22.57;48.98;101146.75;6087042;23;45452;-76
2021/08/02 11:24:20;;;;;;;;;0.00;0.00;;;;;22.68;48.19;101138.41;6083372;23;46269;-77
2021/08/02 11:26:57;;;;;;;;;0.00;0.00;;;;;22.58;48.50;101132.59;6086148;23;45358;-78
2021/08/02 11:29:24;;;;;;;;;1.00;0.00;;;;;22.55;48.56;101127.34;6086186;23;45525;-77